Terminal Aerodrome Forecast
Issued by NWS St Louis, MO

Home | Current Version | Previous Version | Text Only | Print | Product List | Glossary On
Versions: 1 2 3 4 5 6 7 8 9 10 11 12 13 14 15 16 17 18 19 20 21 22 23 24
614
FTUS43 KLSX 190407 AAA
TAFCOU
TAF AMD
KCOU 190407Z 1904/1924 17016G22KT P6SM BKN025 WS017/18045KT
     FM190600 19013KT P6SM VCTS OVC025CB WS017/20045KT
     FM191500 19016G25KT P6SM OVC035
     FM191900 19017G25KT P6SM -SHRA OVC035=

USA.gov is the U.S. government's official web portal to all federal, state and local government web resources and services.